Latest Weather Observations for Rhyll

IDV60901

Issued at 2:51 pm EDT Monday 18 November 2019 (issued every 10 minutes, with the page automatically refreshed every 10 minutes)

About weather observations | Map of Melbourne area stations | Latest observations for Melbourne area | Other Formats
Station Details ID: 086373 Name: RHYLL Lat: -38.46 Lon: 145.31 Height: 13.4 m
Data from the previous 72 hours. | See also: Recent months at Rhyll
Date/Time
EDT
Temp
°C
App
Temp
°C
Dew
Point
°C
Rel
Hum
%
Delta-T
°C
Wind Press
QNH
hPa
Press
MSL
hPa
Rain since
9am
mm
Dir  Spd
km/h
Gust
km/h
Spd
kts
Gust
kts
18/02:30pm 22.0 20.8 10.2 47 6.4 WNW 7 15 4 8 1013.4 1013.4 0.0
18/02:00pm 20.4 18.2 7.7 44 6.5 WNW 9 17 5 9 1013.8 1013.8 0.0
18/01:30pm 20.3 17.8 8.3 46 6.2 WNW 11 17 6 9 1014.2 1014.2 0.0
18/01:00pm 19.1 16.9 7.8 48 5.8 WNW 9 17 5 9 1014.5 1014.5 0.0
18/12:30pm 19.0 16.8 9.2 53 5.2 WNW 11 20 6 11 1014.9 1014.9 0.0
18/12:00pm 18.0 15.1 8.0 52 5.1 WNW 13 20 7 11 1015.1 1015.1 0.0
18/11:30am 17.3 14.5 8.4 56 4.6 WNW 13 20 7 11 1015.4 1015.4 0.0
18/11:00am 16.7 13.7 7.6 55 4.6 NW 13 22 7 12 1015.5 1015.5 0.0
18/10:30am 16.4 13.0 9.3 63 3.7 NNW 17 26 9 14 1015.7 1015.7 0.0
18/10:00am 15.4 11.3 8.6 64 3.4 NNW 20 28 11 15 1016.1 1016.1 0.0
18/09:30am 14.7 10.5 8.2 65 3.3 NNW 20 30 11 16 1016.4 1016.4 0.0
18/09:00am 14.2 10.1 8.8 70 2.7 NNW 20 32 11 17 1016.4 1016.4 0.0
18/08:30am 13.2 7.5 8.5 73 2.3 N 28 35 15 19 1016.1 1016.1 0.0
18/08:00am 12.4 7.4 8.1 75 2.1 NNW 24 32 13 17 1016.5 1016.5 0.0
18/07:30am 12.2 7.9 7.9 75 2.1 NNW 20 30 11 16 1016.7 1016.7 0.0
18/07:00am 11.8 7.8 8.1 78 1.8 NNW 19 28 10 15 1016.9 1016.9 0.0
18/06:30am 11.5 7.5 8.2 80 1.6 NNW 19 26 10 14 1017.1 1017.1 0.0
18/06:00am 11.3 7.9 7.8 79 1.7 NNW 15 24 8 13 1017.2 1017.2 0.0
18/05:30am 11.5 9.2 7.4 76 2.0 NW 9 17 5 9 1017.2 1017.2 0.0
18/05:00am 11.2 8.1 7.3 77 1.9 N 13 17 7 9 1017.3 1017.3 0.0
18/04:30am 11.5 8.0 7.2 75 2.1 NNW 15 19 8 10 1017.2 1017.2 0.0
18/04:00am 11.0 8.2 6.9 76 1.9 NNW 11 15 6 8 1017.6 1017.6 0.0
18/03:30am 11.0 8.3 7.3 78 1.8 N 11 15 6 8 1017.6 1017.6 0.0
18/03:00am 10.2 8.8 5.4 72 2.2 NW 2 7 1 4 1018.0 1018.0 0.0
18/02:30am 10.2 8.8 5.6 73 2.1 NW 2 6 1 3 1018.3 1018.3 0.0
18/02:00am 10.2 8.9 5.8 74 2.0 WNW 2 7 1 4 1018.5 1018.5 0.0
18/01:30am 10.3 8.7 6.3 76 1.9 WNW 4 9 2 5 1018.6 1018.6 0.0
18/01:00am 10.9 8.0 6.3 73 2.1 NNW 11 15 6 8 1019.2 1019.2 0.0
18/12:30am 10.6 8.9 6.0 73 2.1 NW 4 7 2 4 1019.6 1019.6 0.0
18/12:00am 10.7 8.9 5.5 70 2.4 NW 4 7 2 4 1020.0 1020.0 0.0
 
Date/Time
EDT
Temp
°C
App
Temp
°C
Dew
Point
°C
Rel
Hum
%
Delta-T
°C
Wind Press
QNH
hPa
Press
MSL
hPa
Rain since
9am
mm
Dir  Spd
km/h
Gust
km/h
Spd
kts
Gust
kts
17/11:30pm 10.4 8.4 4.5 67 2.6 WNW 4 4 2 2 1020.3 1020.3 0.0
17/11:00pm 10.5 9.4 4.9 68 2.5 CALM 0 0 0 0 1020.8 1020.8 0.0
17/10:30pm 10.8 9.6 4.7 66 2.8 CALM 0 0 0 0 1020.8 1020.8 0.0
17/10:00pm 10.9 9.4 4.8 66 2.7 WNW 2 2 1 1 1021.1 1021.1 0.0
17/09:30pm 10.8 9.3 4.9 67 2.7 WNW 2 4 1 2 1020.7 1020.7 0.0
17/09:00pm 10.8 8.9 4.7 66 2.7 NW 4 4 2 2 1020.7 1020.7 0.0
17/08:30pm 10.9 9.3 4.4 64 2.9 WSW 2 4 1 2 1020.8 1020.8 0.0
17/08:00pm 11.7 9.3 4.4 61 3.3 WSW 6 7 3 4 1021.2 1021.2 0.0
17/07:30pm 12.3 9.8 4.8 60 3.4 SW 7 13 4 7 1021.2 1021.2 0.0
17/07:00pm 12.5 9.1 4.2 57 3.7 SW 11 17 6 9 1021.3 1021.3 0.0
17/06:30pm 13.0 9.6 3.9 54 4.1 SSW 11 17 6 9 1021.1 1021.1 0.0
17/06:00pm 14.2 11.3 4.5 52 4.5 S 9 15 5 8 1020.9 1020.9 0.0
17/05:30pm 14.3 11.1 4.9 53 4.4 SSW 11 20 6 11 1020.9 1020.9 0.0
17/05:00pm 14.7 11.4 4.4 50 4.7 SSW 11 24 6 13 1020.9 1020.9 0.0
17/04:30pm 14.5 10.8 4.2 50 4.7 SSW 13 22 7 12 1020.8 1020.8 0.0
17/04:00pm 14.9 11.6 4.3 49 4.9 SSW 11 20 6 11 1020.6 1020.6 0.0
17/03:30pm 14.2 10.5 4.5 52 4.5 SSW 13 24 7 13 1020.8 1020.8 0.0
17/03:00pm 13.9 9.3 3.9 51 4.5 SW 17 32 9 17 1021.2 1021.2 0.0
17/02:30pm 14.5 10.3 3.9 49 4.8 SSW 15 30 8 16 1021.5 1021.5 0.0
17/02:00pm 13.9 9.4 4.2 52 4.4 SSW 17 28 9 15 1021.4 1021.4 0.0
17/01:30pm 14.2 10.0 3.9 50 4.7 SW 15 26 8 14 1021.9 1021.9 0.0
17/01:00pm 14.4 9.9 4.4 51 4.6 SW 17 28 9 15 1021.9 1021.9 0.0
17/12:30pm 14.1 10.0 4.4 52 4.5 SW 15 24 8 13 1022.0 1022.0 0.0
17/12:00pm 13.5 8.5 3.8 52 4.4 SSW 19 30 10 16 1022.1 1022.1 0.0
17/11:30am 14.4 10.4 6.5 59 3.8 SSW 17 30 9 16 1021.8 1021.8 0.0
17/11:00am 13.4 10.0 6.0 61 3.5 SSW 13 24 7 13 1021.7 1021.7 0.0
17/10:30am 13.9 10.2 6.5 61 3.6 SW 15 24 8 13 1021.6 1021.6 0.0
17/10:00am 13.1 9.6 7.3 68 2.8 SSW 15 26 8 14 1021.5 1021.5 0.0
17/09:30am 13.4 10.3 7.4 67 2.9 SSW 13 24 7 13 1021.2 1021.2 0.0
17/09:00am 11.8 7.9 7.1 73 2.2 SW 17 22 9 12 1021.1 1021.1 0.2
17/08:30am 10.9 8.5 7.0 77 1.9 SW 9 15 5 8 1020.9 1020.9 0.2
17/08:00am 10.9 6.5 7.2 78 1.8 SW 20 35 11 19 1020.7 1020.7 0.2
17/07:30am 12.1 8.9 7.0 71 2.4 SW 13 22 7 12 1020.1 1020.1 0.2
17/07:00am 11.7 8.6 7.4 75 2.1 SSW 13 26 7 14 1019.8 1019.8 0.2
17/06:30am 10.5 5.9 6.6 77 1.8 SW 20 37 11 20 1019.4 1019.4 0.2
17/06:00am 11.2 8.8 6.9 75 2.0 SW 9 19 5 10 1019.2 1019.2 0.2
17/05:30am 11.6 9.2 6.9 73 2.2 SW 9 20 5 11 1018.8 1018.8 0.2
17/05:00am 11.6 8.6 6.1 69 2.6 WSW 11 19 6 10 1018.6 1018.6 0.2
17/04:30am 11.7 8.6 7.2 74 2.2 SW 13 26 7 14 1018.5 1018.5 0.2
17/04:00am 11.4 9.1 7.3 76 2.0 WSW 9 17 5 9 1018.5 1018.5 0.2
17/03:30am 11.2 8.8 7.1 76 2.0 WSW 9 17 5 9 1018.5 1018.5 0.2
17/03:00am 10.9 7.0 7.0 77 1.8 WSW 17 30 9 16 1018.4 1018.4 0.2
17/02:30am 11.7 9.9 7.8 77 1.9 W 7 15 4 8 1018.4 1018.4 0.2
17/02:00am 12.1 9.7 7.2 72 2.4 WSW 9 20 5 11 1018.7 1018.7 0.2
17/01:30am 11.8 10.0 7.3 74 2.2 W 6 13 3 7 1019.0 1019.0 0.2
17/01:00am 11.8 9.5 7.5 75 2.1 W 9 13 5 7 1019.2 1019.2 0.2
17/12:30am 11.3 8.9 7.2 76 2.0 W 9 19 5 10 1019.2 1019.2 0.2
17/12:00am 11.9 7.7 7.6 75 2.1 WSW 19 35 10 19 1019.4 1019.4 0.2
 
Date/Time
EDT
Temp
°C
App
Temp
°C
Dew
Point
°C
Rel
Hum
%
Delta-T
°C
Wind Press
QNH
hPa
Press
MSL
hPa
Rain since
9am
mm
Dir  Spd
km/h
Gust
km/h
Spd
kts
Gust
kts
16/11:30pm 12.2 9.2 5.8 65 3.0 W 11 17 6 9 1019.2 1019.2 0.2
16/11:00pm 12.6 8.9 6.2 65 3.0 WSW 15 28 8 15 1019.5 1019.5 0.2
16/10:30pm 12.3 9.3 6.1 66 2.9 WSW 11 24 6 13 1019.5 1019.5 0.2
16/10:00pm 12.5 10.1 6.8 68 2.7 WSW 9 19 5 10 1019.4 1019.4 0.2
16/09:30pm 12.3 9.8 6.4 67 2.8 WSW 9 19 5 10 1019.3 1019.3 0.2
16/09:00pm 12.3 8.9 5.9 65 3.0 SW 13 19 7 10 1019.0 1019.0 0.2
16/08:30pm 12.6 8.9 6.2 65 3.0 WSW 15 24 8 13 1018.9 1018.9 0.2
16/08:00pm 12.7 10.0 7.2 69 2.7 WSW 11 20 6 11 1018.7 1018.7 0.2
16/07:30pm 12.6 9.3 6.6 67 2.9 WSW 13 20 7 11 1018.4 1018.4 0.2
16/07:00pm 12.9 9.6 6.3 64 3.1 WSW 13 26 7 14 1018.3 1018.3 0.2
16/06:30pm 13.3 9.2 6.2 62 3.4 WSW 17 26 9 14 1018.0 1018.0 0.2
16/06:00pm 13.6 9.6 6.5 62 3.4 WSW 17 30 9 16 1018.2 1018.2 0.2
16/05:30pm 13.4 9.8 6.7 64 3.2 WSW 15 24 8 13 1018.4 1018.4 0.2
16/05:00pm 13.8 9.4 6.7 62 3.4 WSW 19 33 10 18 1018.4 1018.4 0.2
16/04:30pm 14.9 11.2 6.5 57 4.1 WSW 15 28 8 15 1018.4 1018.4 0.2
16/04:00pm 14.8 10.2 5.6 54 4.4 WSW 19 33 10 18 1018.3 1018.3 0.2
16/03:30pm 14.9 10.3 5.7 54 4.4 WSW 19 32 10 17 1018.4 1018.4 0.2
16/03:00pm 15.3 10.7 5.5 52 4.7 SW 19 28 10 15 1018.3 1018.3 0.2
16/02:30pm 15.0 10.6 6.6 57 4.1 SW 19 32 10 17 1018.2 1018.2 0.2
16/02:00pm 15.6 12.0 6.9 56 4.3 WSW 15 24 8 13 1018.2 1018.2 0.2
16/01:30pm 15.5 11.0 6.2 54 4.5 WSW 19 35 10 19 1018.4 1018.4 0.0
16/01:00pm 15.6 12.5 5.5 51 4.8 WSW 11 24 6 13 1018.5 1018.5 0.0
16/12:30pm 14.7 10.2 4.1 49 4.9 WSW 17 30 9 16 1018.5 1018.5 0.0
16/12:00pm 14.1 9.4 3.0 47 4.9 WSW 17 30 9 16 1018.6 1018.6 0.0
16/11:30am 14.4 9.9 4.4 51 4.6 WSW 17 39 9 21 1018.8 1018.8 0.0
16/11:00am 12.5 8.2 5.2 61 3.4 W 17 32 9 17 1018.8 1018.8 0.0
16/10:30am 12.3 8.9 5.7 64 3.1 W 13 20 7 11 1018.6 1018.6 0.0
16/10:00am 13.4 10.0 5.8 60 3.6 W 13 24 7 13 1018.1 1018.1 0.0
16/09:30am 12.4 9.6 7.1 70 2.6 W 11 20 6 11 1018.1 1018.1 0.0
16/09:00am 12.6 9.7 6.6 67 2.9 W 11 20 6 11 1017.9 1017.9 0.4
16/08:30am 11.6 8.7 6.5 71 2.4 W 11 20 6 11 1017.7 1017.7 0.4
16/08:00am 11.7 8.8 6.6 71 2.4 W 11 19 6 10 1017.4 1017.4 0.4
16/07:30am 11.1 9.0 6.8 75 2.0 W 7 13 4 7 1017.0 1017.0 0.4
16/07:00am 11.2 9.2 7.3 77 1.9 W 7 11 4 6 1016.7 1016.7 0.4
16/06:30am 10.4 8.6 7.1 80 1.6 W 6 9 3 5 1016.7 1016.7 0.4
16/06:00am 10.3 8.4 6.8 79 1.6 W 6 11 3 6 1016.4 1016.4 0.4
16/05:30am 10.7 8.3 7.0 78 1.8 W 9 17 5 9 1016.2 1016.2 0.4
16/05:00am 10.5 8.4 6.5 76 1.9 W 7 13 4 7 1016.0 1016.0 0.4
16/04:30am 10.3 8.4 6.6 78 1.7 W 6 9 3 5 1016.0 1016.0 0.4
16/04:00am 10.6 8.1 6.6 76 1.9 WNW 9 15 5 8 1016.0 1016.0 0.4
16/03:30am 10.9 8.3 5.9 71 2.3 W 9 17 5 9 1015.9 1015.9 0.4
16/03:00am 10.7 7.3 4.2 64 2.9 WSW 11 20 6 11 1015.8 1015.8 0.4
16/02:30am 11.0 7.5 5.3 68 2.6 WSW 13 24 7 13 1015.9 1015.9 0.4
16/02:00am 11.2 8.4 5.1 66 2.8 WSW 9 17 5 9 1016.0 1016.0 0.4
16/01:30am 10.9 8.2 5.4 69 2.5 W 9 19 5 10 1016.1 1016.1 0.4
16/01:00am 10.7 8.9 7.2 79 1.7 W 6 13 3 7 1016.3 1016.3 0.4
16/12:30am 10.5 8.3 6.3 75 2.0 W 7 13 4 7 1016.2 1016.2 0.4
16/12:00am 11.2 7.9 6.5 73 2.2 W 13 26 7 14 1016.1 1016.1 0.4
 
Date/Time
EDT
Temp
°C
App
Temp
°C
Dew
Point
°C
Rel
Hum
%
Delta-T
°C
Wind Press
QNH
hPa
Press
MSL
hPa
Rain since
9am
mm
Dir  Spd
km/h
Gust
km/h
Spd
kts
Gust
kts
15/11:30pm 11.0 6.9 6.4 73 2.2 WSW 17 30 9 16 1016.0 1016.0 0.4
15/11:00pm 11.7 8.2 5.6 66 2.8 W 13 28 7 15 1015.7 1015.7 0.4
15/10:30pm 12.3 8.5 5.7 64 3.1 W 15 28 8 15 1015.7 1015.7 0.4
15/10:00pm 12.2 9.2 6.0 66 2.9 WSW 11 28 6 15 1015.4 1015.4 0.4
15/09:30pm 12.1 8.6 5.3 63 3.1 WSW 13 20 7 11 1015.2 1015.2 0.4
15/09:00pm 11.9 8.5 5.8 66 2.8 WSW 13 24 7 13 1014.9 1014.9 0.4
15/08:30pm 12.3 9.4 6.4 67 2.8 WSW 11 19 6 10 1014.5 1014.5 0.4
15/08:00pm 12.5 9.1 6.1 65 3.0 WSW 13 30 7 16 1013.9 1013.9 0.4
15/07:30pm 13.0 8.5 6.1 63 3.3 WSW 19 37 10 20 1013.5 1013.5 0.4
15/07:00pm 13.2 8.3 7.0 66 3.0 SW 22 37 12 20 1012.9 1012.9 0.4
15/06:30pm 14.1 8.2 5.7 57 4.0 WSW 26 41 14 22 1012.3 1012.3 0.4
15/06:00pm 14.6 9.5 5.9 56 4.2 WSW 22 46 12 25 1011.9 1011.9 0.4
15/05:34pm 14.6 8.6 7.2 61 3.6 WSW 28 48 15 26 1011.4 1011.4 0.4
15/05:30pm 14.3 7.5 6.9 61 3.6 WSW 32 48 17 26 1011.4 1011.4 0.4
15/05:00pm 14.0 7.9 6.4 60 3.7 WSW 28 50 15 27 1011.1 1011.1 0.4
15/04:46pm 14.4 8.2 6.3 58 3.9 WSW 28 48 15 26 1010.9 1010.9 0.4
15/04:30pm 14.0 7.9 6.4 60 3.7 WSW 28 43 15 23 1010.8 1010.8 0.4
15/04:02pm 14.5 8.6 7.3 62 3.5 WSW 28 46 15 25 1010.7 1010.7 0.4
15/04:00pm 14.6 9.1 7.6 63 3.5 WSW 26 46 14 25 1010.8 1010.8 0.4
15/03:30pm 13.9 10.1 9.7 76 2.2 WSW 20 33 11 18 1010.5 1010.5 0.4
15/03:00pm 13.9 10.0 9.5 75 2.3 WSW 20 35 11 19 1010.4 1010.4 0.4

Latest Capital City Observations: Canberra | Sydney | Melbourne | Brisbane | Adelaide | Perth | Hobart | Darwin

Other formats

Comma delimited format used in spreadsheet applications
http://www.bom.gov.au/fwo/IDV60901/IDV60901.94892.axf

JavaScript Object Notation format (JSON) in row-major order
http://www.bom.gov.au/fwo/IDV60901/IDV60901.94892.json

Data quality

Most of these data are generated automatically and are frequently updated. Quality checks on data are not normally performed. It is possible for incorrect values to appear. Refer to information at About Latest Weather Observations and please check the disclaimer before using these data.